createdAt,value
2023-01-05T00:01:05.595Z,97079.97
2023-01-05T00:03:34.165Z,97069.34
2023-01-05T00:06:02.321Z,97065.88
2023-01-05T00:08:34.807Z,97067.56
2023-01-05T00:11:23.551Z,97056.09
2023-01-05T00:14:08.800Z,97062.19
2023-01-05T00:16:55.438Z,97056.94
2023-01-05T00:19:41.238Z,97044.69
2023-01-05T00:22:34.966Z,97050.81
2023-01-05T00:25:11.793Z,97059.47
2023-01-05T00:27:42.296Z,97061.25
2023-01-05T00:30:10.813Z,97068.31
2023-01-05T00:32:40.137Z,97071.78
2023-01-05T00:35:08.840Z,97062.19
2023-01-05T00:37:38.146Z,97059.56
2023-01-05T00:40:07.154Z,97063.88
2023-01-05T00:42:35.165Z,97063.88
2023-01-05T00:45:03.759Z,97055.13
2023-01-05T00:47:31.635Z,97046.41
2023-01-05T00:50:00.797Z,97041.13
2023-01-05T00:52:28.972Z,97046.31
2023-01-05T00:54:56.957Z,97042.72
2023-01-05T00:57:24.891Z,97044.50
2023-01-05T00:59:54.811Z,97037.44
2023-01-05T01:02:22.791Z,97029.56
2023-01-05T01:04:50.954Z,97033.97
2023-01-05T01:07:20.267Z,97033.03
2023-01-05T01:09:48.118Z,97030.38
2023-01-05T01:12:16.123Z,97025.13
2023-01-05T01:14:47.025Z,97030.38
2023-01-05T01:17:16.999Z,97025.97
2023-01-05T01:19:46.574Z,97027.66
2023-01-05T01:22:14.948Z,97023.22
2023-01-05T01:24:44.176Z,97030.31
2023-01-05T01:27:12.916Z,97037.25
2023-01-05T01:29:40.876Z,97040.84
2023-01-05T01:32:08.828Z,97034.63
2023-01-05T01:34:36.873Z,97027.66
2023-01-05T01:37:05.218Z,97019.75
2023-01-05T01:39:38.946Z,97020.59
2023-01-05T01:42:14.796Z,97017.13
2023-01-05T01:44:53.624Z,97019.69
2023-01-05T01:47:31.416Z,97021.34
2023-01-05T01:50:02.366Z,97003.88
2023-01-05T01:52:31.720Z,96999.44
2023-01-05T01:55:02.128Z,96988.91
2023-01-05T01:57:31.617Z,96984.56
2023-01-05T02:00:03.709Z,96965.19
2023-01-05T02:02:33.259Z,96962.66
2023-01-05T02:05:06.339Z,96974.91
2023-01-05T02:07:38.707Z,96982.78
2023-01-05T02:10:08.116Z,96980.03
2023-01-05T02:12:48.687Z,96972.25
2023-01-05T02:15:28.484Z,96968.75
2023-01-05T02:18:10.236Z,96977.41
2023-01-05T02:20:52.988Z,96975.72
2023-01-05T02:24:01.499Z,96972.25
2023-01-05T02:27:15.803Z,96974.91
2023-01-05T02:30:08.349Z,96970.34
2023-01-05T02:32:48.646Z,96983.44
2023-01-05T02:35:27.567Z,96972.88
2023-01-05T02:38:02.613Z,96972.88
2023-01-05T02:40:35.493Z,96974.47
2023-01-05T02:43:07.532Z,96969.19
2023-01-05T02:45:35.610Z,96966.56
2023-01-05T02:48:05.230Z,96972.59
2023-01-05T02:50:39.509Z,96974.25
2023-01-05T02:53:18.308Z,96971.75
2023-01-05T02:55:50.337Z,96968.91
2023-01-05T02:58:24.749Z,96966.28
2023-01-05T03:00:56.939Z,96961.00
2023-01-05T03:03:35.426Z,96961.75
2023-01-05T03:06:09.396Z,96970.50
2023-01-05T03:08:44.800Z,96966.06
2023-01-05T03:11:32.779Z,96966.81
2023-01-05T03:14:09.664Z,96970.19
2023-01-05T03:16:39.820Z,96974.63
2023-01-05T03:19:31.601Z,96979.78
2023-01-05T03:22:20.514Z,96982.25
2023-01-05T03:25:07.356Z,96976.97
2023-01-05T03:27:56.696Z,96968.97
2023-01-05T03:30:51.919Z,96967.19
2023-01-05T03:33:46.192Z,96978.47
2023-01-05T03:36:19.639Z,96986.16
2023-01-05T03:38:51.768Z,96974.66
2023-01-05T03:41:23.344Z,96966.66
2023-01-05T03:43:52.415Z,96975.31
2023-01-05T03:46:23.053Z,96974.47
2023-01-05T03:48:51.835Z,96970.78
2023-01-05T03:51:22.730Z,96971.63
2023-01-05T03:53:50.681Z,96968.78
2023-01-05T03:56:18.811Z,96964.91
2023-01-05T03:58:46.623Z,96967.31
2023-01-05T04:01:14.971Z,96971.53
2023-01-05T04:03:43.746Z,96964.28
2023-01-05T04:06:12.336Z,96971.03
2023-01-05T04:08:42.029Z,96971.88
2023-01-05T04:11:16.397Z,96966.50
2023-01-05T04:13:49.312Z,96967.22
2023-01-05T04:16:18.161Z,96961.66
2023-01-05T04:18:46.537Z,96966.91
2023-01-05T04:21:17.455Z,96968.59
2023-01-05T04:23:47.168Z,96971.03
2023-01-05T04:26:16.268Z,96971.88
2023-01-05T04:28:50.069Z,96969.25
2023-01-05T04:31:20.737Z,96968.28
2023-01-05T04:33:49.970Z,96970.81
2023-01-05T04:36:20.978Z,96968.94
2023-01-05T04:38:51.469Z,96969.03
2023-01-05T04:41:19.361Z,96983.78
2023-01-05T04:43:50.202Z,96981.16
2023-01-05T04:46:18.375Z,96982.03
2023-01-05T04:48:49.116Z,96982.13
2023-01-05T04:51:19.289Z,96985.50
2023-01-05T04:53:47.358Z,96984.66
2023-01-05T04:56:19.750Z,96985.50
2023-01-05T04:58:49.795Z,96985.59
2023-01-05T05:01:17.841Z,96989.06
2023-01-05T05:03:50.825Z,96984.66
2023-01-05T05:06:21.343Z,96991.00
2023-01-05T05:08:50.714Z,96984.75
2023-01-05T05:11:20.502Z,96986.44
2023-01-05T05:13:50.063Z,96983.91
2023-01-05T05:16:18.554Z,96995.41
2023-01-05T05:18:48.349Z,96992.66
2023-01-05T05:21:21.569Z,97000.69
2023-01-05T05:23:49.426Z,96999.84
2023-01-05T05:26:17.487Z,96996.34
2023-01-05T05:28:48.789Z,96995.41
2023-01-05T05:31:16.686Z,97003.44
2023-01-05T05:33:44.804Z,96999.00
2023-01-05T05:36:12.719Z,97011.34
2023-01-05T05:38:40.603Z,97011.34
2023-01-05T05:41:08.429Z,97009.63
2023-01-05T05:43:36.611Z,97018.50
2023-01-05T05:46:06.214Z,97031.69
2023-01-05T05:48:34.101Z,97025.69
2023-01-05T05:51:01.979Z,97030.00
2023-01-05T05:53:29.826Z,97035.28
2023-01-05T05:55:57.759Z,97028.31
2023-01-05T05:58:25.652Z,97034.53
2023-01-05T06:00:58.006Z,97044.22
2023-01-05T06:03:27.306Z,97045.06
2023-01-05T06:05:55.239Z,97037.16
2023-01-05T06:08:24.006Z,97047.72
2023-01-05T06:10:52.019Z,97047.00
2023-01-05T06:13:20.164Z,97048.75
2023-01-05T06:15:48.515Z,97061.94
2023-01-05T06:18:16.985Z,97062.81
2023-01-05T06:20:46.853Z,97068.09
2023-01-05T06:23:14.724Z,97076.84
2023-01-05T06:25:42.594Z,97083.91
2023-01-05T06:28:10.391Z,97086.34
2023-01-05T06:30:38.340Z,97092.22
2023-01-05T06:33:06.221Z,97097.50
2023-01-05T06:35:34.215Z,97099.13
2023-01-05T06:38:03.414Z,97100.06
2023-01-05T06:40:31.245Z,97097.50
2023-01-05T06:42:59.344Z,97106.16
2023-01-05T06:45:27.228Z,97122.00
2023-01-05T06:47:55.161Z,97112.50
2023-01-05T06:50:23.032Z,97121.38
2023-01-05T06:52:50.886Z,97131.25
2023-01-05T06:55:21.859Z,97132.31
2023-01-05T06:57:49.712Z,97126.41
2023-01-05T07:00:18.355Z,97129.97
2023-01-05T07:02:46.870Z,97141.78
2023-01-05T07:05:14.725Z,97143.66
2023-01-05T07:07:42.783Z,97144.50
2023-01-05T07:10:11.047Z,97142.91
2023-01-05T07:12:40.340Z,97149.13
2023-01-05T07:15:10.723Z,97143.88
2023-01-05T07:17:38.629Z,97149.84
2023-01-05T07:20:07.887Z,97146.28
2023-01-05T07:22:35.806Z,97147.03
2023-01-05T07:25:03.686Z,97146.22
2023-01-05T07:27:31.890Z,97146.00
2023-01-05T07:30:01.497Z,97144.19
2023-01-05T07:32:29.743Z,97139.75
2023-01-05T07:34:58.011Z,97140.63
2023-01-05T07:37:26.283Z,97144.00
2023-01-05T07:39:54.473Z,97149.09
2023-01-05T07:42:22.657Z,97152.34
2023-01-05T07:44:52.698Z,97155.75
2023-01-05T07:47:22.536Z,97158.47
2023-01-05T07:49:50.401Z,97163.75
2023-01-05T07:52:18.301Z,97162.81
2023-01-05T07:54:46.409Z,97169.97
2023-01-05T07:57:14.285Z,97171.66
2023-01-05T07:59:42.188Z,97177.78
2023-01-05T08:02:10.691Z,97194.38
2023-01-05T08:04:40.224Z,97195.31
2023-01-05T08:07:11.111Z,97189.09
2023-01-05T08:09:56.673Z,97193.41
2023-01-05T08:12:24.556Z,97205.75
2023-01-05T08:14:52.452Z,97204.72
2023-01-05T08:17:20.319Z,97206.41
2023-01-05T08:19:49.583Z,97210.81
2023-01-05T08:22:17.458Z,97221.28
2023-01-05T08:24:45.209Z,97218.44
2023-01-05T08:27:13.140Z,97219.50
2023-01-05T08:29:40.986Z,97229.28
2023-01-05T08:32:08.992Z,97228.38
2023-01-05T08:34:37.156Z,97217.81
2023-01-05T08:37:06.353Z,97224.00
2023-01-05T08:39:35.886Z,97237.19
2023-01-05T08:42:03.770Z,97236.38
2023-01-05T08:44:31.703Z,97231.09
2023-01-05T08:46:59.709Z,97246.91
2023-01-05T08:49:27.568Z,97244.19
2023-01-05T08:51:55.785Z,97246.91
2023-01-05T08:54:25.049Z,97254.75
2023-01-05T08:56:52.940Z,97252.19
2023-01-05T08:59:20.869Z,97254.63
2023-01-05T09:01:49.767Z,97257.16
2023-01-05T09:04:18.177Z,97258.00
2023-01-05T09:06:46.093Z,97263.38
2023-01-05T09:09:14.065Z,97274.78
2023-01-05T09:11:43.361Z,97259.16
2023-01-05T09:14:14.432Z,97281.13
2023-01-05T09:17:06.595Z,97275.84
2023-01-05T09:19:30.225Z,97288.06
2023-01-05T09:21:58.260Z,97291.66
2023-01-05T09:24:26.216Z,97299.56
2023-01-05T09:26:55.633Z,97305.69
2023-01-05T09:29:23.649Z,97300.50
2023-01-05T09:31:51.502Z,97317.84
2023-01-05T09:34:19.778Z,97323.13
2023-01-05T09:36:47.671Z,97328.38
2023-01-05T09:39:15.584Z,97324.03
2023-01-05T09:41:46.409Z,97314.34
2023-01-05T09:44:27.474Z,97325.75
2023-01-05T09:46:58.754Z,97315.09
2023-01-05T09:49:28.441Z,97312.28
2023-01-05T09:52:00.320Z,97320.06
2023-01-05T09:54:30.910Z,97319.97
2023-01-05T09:57:09.838Z,97317.06
2023-01-05T09:59:43.345Z,97311.78
2023-01-05T10:02:19.868Z,97321.38
2023-01-05T10:04:48.868Z,97308.84
2023-01-05T10:07:26.954Z,97306.97
2023-01-05T10:09:59.465Z,97317.59
2023-01-05T10:12:50.176Z,97306.88
2023-01-05T10:15:21.975Z,97306.66
2023-01-05T10:17:50.109Z,97297.91
2023-01-05T10:20:21.748Z,97303.19
2023-01-05T10:23:00.779Z,97292.44
2023-01-05T10:25:39.093Z,97298.47
2023-01-05T10:28:25.052Z,97291.28
2023-01-05T10:30:58.983Z,97288.53
2023-01-05T10:33:48.655Z,97278.94
2023-01-05T10:37:12.843Z,97276.38
2023-01-05T10:40:00.581Z,97285.88
2023-01-05T10:42:43.440Z,97275.16
2023-01-05T10:45:12.814Z,97293.34
2023-01-05T10:47:45.076Z,97287.00
2023-01-05T10:50:38.470Z,97290.28
2023-01-05T10:53:12.086Z,97284.06
2023-01-05T10:55:55.847Z,97289.13
2023-01-05T10:58:25.379Z,97282.06
2023-01-05T11:00:56.739Z,97281.84
2023-01-05T11:04:14.345Z,97298.56
2023-01-05T11:06:25.131Z,97271.28
2023-01-05T11:08:53.320Z,97260.44
2023-01-05T11:11:23.863Z,97269.22
2023-01-05T11:13:55.701Z,97267.41
2023-01-05T11:16:26.498Z,97270.81
2023-01-05T11:18:58.511Z,97281.38
2023-01-05T11:21:28.921Z,97285.81
2023-01-05T11:23:58.323Z,97295.50
2023-01-05T11:26:32.334Z,97289.38
2023-01-05T11:29:04.853Z,97285.59
2023-01-05T11:31:38.765Z,97286.53
2023-01-05T11:34:15.615Z,97278.50
2023-01-05T11:36:44.965Z,97281.91
2023-01-05T11:39:24.559Z,97287.19
2023-01-05T11:41:52.684Z,97285.38
2023-01-05T11:44:24.017Z,97282.66
2023-01-05T11:46:52.093Z,97279.88
2023-01-05T11:49:21.414Z,97280.00
2023-01-05T11:51:49.345Z,97276.53
2023-01-05T11:54:35.551Z,97275.47
2023-01-05T11:57:18.012Z,97286.78
2023-01-05T11:59:46.753Z,97288.78
2023-01-05T12:02:58.525Z,97290.25
2023-01-05T12:05:37.703Z,97277.38
2023-01-05T12:08:11.202Z,97285.06
2023-01-05T12:11:09.345Z,97283.28
2023-01-05T12:13:56.641Z,97273.66
2023-01-05T12:16:38.961Z,97280.63
2023-01-05T12:19:39.471Z,97283.28
2023-01-05T12:22:32.220Z,97286.78
2023-01-05T12:25:10.175Z,97283.09
2023-01-05T12:27:54.318Z,97270.94
2023-01-05T12:32:48.015Z,97286.03
2023-01-05T12:36:48.716Z,97286.44
2023-01-05T12:39:41.225Z,97290.88
2023-01-05T12:42:37.681Z,97285.47
2023-01-05T12:45:32.488Z,97299.53
2023-01-05T12:48:03.997Z,97295.94
2023-01-05T12:50:36.307Z,97296.78
2023-01-05T12:53:16.665Z,97305.00
2023-01-05T12:55:49.780Z,97306.59
2023-01-05T12:58:24.627Z,97303.94
2023-01-05T13:00:54.715Z,97305.66
2023-01-05T13:03:27.745Z,97296.91
2023-01-05T13:06:01.877Z,97310.19
2023-01-05T13:08:36.596Z,97298.78
2023-01-05T13:11:11.486Z,97311.78
2023-01-05T13:13:42.443Z,97297.75
2023-01-05T13:16:16.362Z,97309.16
2023-01-05T13:18:50.003Z,97303.78
2023-01-05T13:21:18.469Z,97307.25
2023-01-05T13:23:49.882Z,97298.59
2023-01-05T13:26:21.986Z,97316.13
2023-01-05T13:28:53.589Z,97310.84
2023-01-05T13:31:47.292Z,97305.56
2023-01-05T13:34:38.082Z,97307.34
2023-01-05T13:37:24.830Z,97310.09
2023-01-05T13:40:09.975Z,97308.41
2023-01-05T13:43:01.544Z,97310.09
2023-01-05T13:46:01.969Z,97317.50
2023-01-05T13:49:03.808Z,97312.22
2023-01-05T13:51:49.121Z,97315.69
2023-01-05T13:54:21.377Z,97317.50
2023-01-05T13:56:50.830Z,97313.97
2023-01-05T13:59:35.685Z,97315.88
2023-01-05T14:02:27.125Z,97319.47
2023-01-05T14:04:55.468Z,97310.72
2023-01-05T14:07:23.790Z,97315.16
2023-01-05T14:09:55.731Z,97321.44
2023-01-05T14:12:46.599Z,97315.31
2023-01-05T14:15:37.610Z,97324.00
2023-01-05T14:18:06.136Z,97319.75
2023-01-05T14:20:37.447Z,97315.22
2023-01-05T14:23:43.913Z,97319.75
2023-01-05T14:26:11.905Z,97317.13
2023-01-05T14:28:46.054Z,97330.53
2023-01-05T14:31:47.904Z,97309.28
2023-01-05T14:34:18.288Z,97318.09
2023-01-05T14:36:53.529Z,97319.75
2023-01-05T14:39:29.913Z,97321.78
2023-01-05T14:42:01.931Z,97326.94
2023-01-05T14:44:35.995Z,97336.75
2023-01-05T14:47:06.602Z,97338.63
2023-01-05T14:49:38.195Z,97338.63
2023-01-05T14:52:08.445Z,97344.03
2023-01-05T14:55:21.682Z,97346.75
2023-01-05T14:57:59.510Z,97348.56
2023-01-05T15:00:56.133Z,97345.06
2023-01-05T15:03:51.603Z,97347.72
2023-01-05T15:06:26.233Z,97352.31
2023-01-05T15:09:31.640Z,97350.53
2023-01-05T15:12:42.121Z,97352.53
2023-01-05T15:15:31.202Z,97363.94
2023-01-05T15:18:35.756Z,97354.34
2023-01-05T15:21:37.747Z,97347.34
2023-01-05T15:24:21.194Z,97344.81
2023-01-05T15:27:07.076Z,97341.44
2023-01-05T15:29:48.342Z,97346.72
2023-01-05T15:32:20.261Z,97350.28
2023-01-05T15:34:54.561Z,97344.16
2023-01-05T15:37:31.183Z,97346.88
2023-01-05T15:40:03.878Z,97345.19
2023-01-05T15:42:39.354Z,97354.78
2023-01-05T15:45:17.372Z,97351.41
2023-01-05T15:47:46.316Z,97353.19
2023-01-05T15:50:20.351Z,97351.53
2023-01-05T15:52:55.400Z,97340.22
2023-01-05T15:55:24.483Z,97343.69
2023-01-05T15:57:54.265Z,97345.50
2023-01-05T16:00:24.884Z,97344.66
2023-01-05T16:02:52.828Z,97341.19
2023-01-05T16:05:22.263Z,97353.63
2023-01-05T16:07:57.593Z,97352.75
2023-01-05T16:10:30.790Z,97350.31
2023-01-05T16:13:04.062Z,97352.09
2023-01-05T16:15:35.062Z,97349.66
2023-01-05T16:18:04.517Z,97353.22
2023-01-05T16:20:33.173Z,97357.59
2023-01-05T16:23:08.910Z,97360.31
2023-01-05T16:25:42.213Z,97360.31
2023-01-05T16:28:17.273Z,97354.19
2023-01-05T16:30:47.201Z,97358.63
2023-01-05T16:33:30.227Z,97359.63
2023-01-05T16:36:13.269Z,97366.63
2023-01-05T16:38:42.653Z,97360.50
2023-01-05T16:41:16.525Z,97368.50
2023-01-05T16:43:53.627Z,97369.47
2023-01-05T16:46:29.060Z,97365.13
2023-01-05T16:49:00.508Z,97361.56
2023-01-05T16:51:40.724Z,97367.94
2023-01-05T16:54:19.174Z,97356.84
2023-01-05T16:56:57.745Z,97364.16
2023-01-05T16:59:42.727Z,97363.34
2023-01-05T17:02:31.071Z,97364.38
2023-01-05T17:04:59.203Z,97360.13
2023-01-05T17:07:27.244Z,97363.44
2023-01-05T17:09:56.561Z,97364.16
2023-01-05T17:12:24.431Z,97365.13
2023-01-05T17:14:52.387Z,97369.56
2023-01-05T17:17:20.265Z,97370.41
2023-01-05T17:19:51.433Z,97374.16
2023-01-05T17:22:21.310Z,97368.88
2023-01-05T17:24:49.652Z,97365.41
2023-01-05T17:27:18.930Z,97360.34
2023-01-05T17:29:46.858Z,97357.59
2023-01-05T17:32:14.991Z,97354.94
2023-01-05T17:34:42.846Z,97355.06
2023-01-05T17:37:16.053Z,97350.91
2023-01-05T17:39:44.059Z,97351.75
2023-01-05T17:42:29.401Z,97354.22
2023-01-05T17:44:58.651Z,97357.78
2023-01-05T17:47:26.463Z,97351.88
2023-01-05T17:49:54.674Z,97353.63
2023-01-05T17:52:22.558Z,97353.53
2023-01-05T17:54:50.392Z,97351.75
2023-01-05T17:57:18.254Z,97350.91
2023-01-05T17:59:46.110Z,97354.38
2023-01-05T18:02:15.471Z,97354.38
2023-01-05T18:04:43.335Z,97344.88
2023-01-05T18:07:11.188Z,97351.75
2023-01-05T18:09:39.113Z,97350.06
2023-01-05T18:12:07.551Z,97350.81
2023-01-05T18:14:35.471Z,97350.81
2023-01-05T18:17:03.331Z,97342.16
2023-01-05T18:19:33.677Z,97349.13
2023-01-05T18:22:01.895Z,97342.91
2023-01-05T18:24:29.918Z,97345.63
2023-01-05T18:26:57.848Z,97340.28
2023-01-05T18:29:25.773Z,97340.28
2023-01-05T18:31:54.098Z,97329.91
2023-01-05T18:34:23.010Z,97334.25
2023-01-05T18:36:58.503Z,97329.72
2023-01-05T18:39:34.334Z,97332.25
2023-01-05T18:42:02.547Z,97332.25
2023-01-05T18:44:30.466Z,97333.97
2023-01-05T18:46:58.341Z,97336.59
2023-01-05T18:49:27.512Z,97333.13
2023-01-05T18:51:57.113Z,97337.44
2023-01-05T18:54:24.965Z,97341.03
2023-01-05T18:56:52.913Z,97323.50
2023-01-05T18:59:21.057Z,97321.72
2023-01-05T19:01:49.158Z,97327.84
2023-01-05T19:04:17.961Z,97327.09
2023-01-05T19:06:46.018Z,97335.75
2023-01-05T19:09:16.066Z,97330.50
2023-01-05T19:11:46.680Z,97333.28
2023-01-05T19:14:15.453Z,97325.28
2023-01-05T19:16:43.588Z,97323.69
2023-01-05T19:19:15.084Z,97325.38
2023-01-05T19:21:45.133Z,97327.09
2023-01-05T19:24:17.377Z,97329.91
2023-01-05T19:26:46.433Z,97330.84
2023-01-05T19:29:14.914Z,97336.13
2023-01-05T19:31:43.624Z,97338.00
2023-01-05T19:34:14.811Z,97333.69
2023-01-05T19:36:42.679Z,97332.19
2023-01-05T19:39:13.941Z,97333.97
2023-01-05T19:41:46.526Z,97335.72
2023-01-05T19:44:16.588Z,97335.84
2023-01-05T19:46:45.614Z,97330.56
2023-01-05T19:49:17.147Z,97334.13
2023-01-05T19:51:45.668Z,97335.72
2023-01-05T19:54:14.879Z,97329.81
2023-01-05T19:56:45.549Z,97324.34
2023-01-05T19:59:16.751Z,97327.09
2023-01-05T20:01:45.167Z,97323.50
2023-01-05T20:04:13.058Z,97325.31
2023-01-05T20:06:42.678Z,97314.84
2023-01-05T20:09:14.588Z,97325.38
2023-01-05T20:11:51.658Z,97326.16
2023-01-05T20:14:22.517Z,97327.19
2023-01-05T20:16:55.250Z,97335.84
2023-01-05T20:19:26.613Z,97326.22
2023-01-05T20:21:55.666Z,97334.06
2023-01-05T20:24:25.407Z,97332.25
2023-01-05T20:26:56.779Z,97331.34
2023-01-05T20:29:26.165Z,97337.44
2023-01-05T20:31:56.011Z,97338.38
2023-01-05T20:34:28.547Z,97341.00
2023-01-05T20:36:56.680Z,97336.78
2023-01-05T20:39:24.541Z,97339.53
2023-01-05T20:41:55.387Z,97341.97
2023-01-05T20:44:26.642Z,97337.66
2023-01-05T20:46:55.280Z,97338.56
2023-01-05T20:49:26.183Z,97327.28
2023-01-05T20:51:54.723Z,97323.03
2023-01-05T20:54:22.647Z,97314.38
2023-01-05T20:56:50.584Z,97315.59
2023-01-05T20:59:22.841Z,97307.13
2023-01-05T21:01:51.874Z,97315.59
2023-01-05T21:04:20.788Z,97307.63
2023-01-05T21:06:49.134Z,97314.66
2023-01-05T21:09:17.050Z,97310.34
2023-01-05T21:11:46.446Z,97309.50
2023-01-05T21:14:15.654Z,97311.25
2023-01-05T21:16:47.036Z,97310.69
2023-01-05T21:19:17.876Z,97308.81
2023-01-05T21:21:46.575Z,97319.47
2023-01-05T21:24:16.096Z,97314.28
2023-01-05T21:26:44.404Z,97303.78
2023-01-05T21:29:14.286Z,97314.28
2023-01-05T21:31:42.182Z,97313.44
2023-01-05T21:34:12.979Z,97306.44
2023-01-05T21:36:44.901Z,97298.63
2023-01-05T21:39:18.242Z,97297.88
2023-01-05T21:42:04.477Z,97302.41
2023-01-05T21:44:32.954Z,97297.13
2023-01-05T21:47:01.340Z,97304.47
2023-01-05T21:49:30.542Z,97309.47
2023-01-05T21:52:15.962Z,97302.41
2023-01-05T21:55:03.484Z,97297.97
2023-01-05T21:57:31.529Z,97300.50
2023-01-05T21:59:59.557Z,97292.78
2023-01-05T22:02:27.450Z,97291.09
2023-01-05T22:04:56.870Z,97297.88
2023-01-05T22:07:24.797Z,97292.63
2023-01-05T22:09:52.709Z,97286.66
2023-01-05T22:12:20.588Z,97294.38
2023-01-05T22:14:48.377Z,97289.97
2023-01-05T22:17:16.203Z,97297.75
2023-01-05T22:19:44.603Z,97290.72
2023-01-05T22:22:13.900Z,97288.94
2023-01-05T22:24:41.839Z,97284.72
2023-01-05T22:27:09.690Z,97292.50
2023-01-05T22:29:37.575Z,97291.56
2023-01-05T22:32:05.977Z,97290.81
2023-01-05T22:34:34.019Z,97293.38
2023-01-05T22:37:01.898Z,97292.38
2023-01-05T22:39:31.179Z,97288.09
2023-01-05T22:41:59.157Z,97290.63
2023-01-05T22:44:27.204Z,97295.03
2023-01-05T22:46:55.119Z,97295.03
2023-01-05T22:49:23.014Z,97297.69
2023-01-05T22:51:50.947Z,97287.16
2023-01-05T22:54:18.729Z,97292.38
2023-01-05T22:56:47.962Z,97292.50
2023-01-05T22:59:15.864Z,97289.97
2023-01-05T23:01:45.147Z,97284.72
2023-01-05T23:04:13.410Z,97293.66
2023-01-05T23:06:41.344Z,97283.19
2023-01-05T23:09:10.731Z,97285.81
2023-01-05T23:11:40.767Z,97284.97
2023-01-05T23:14:12.259Z,97278.97
2023-01-05T23:16:40.480Z,97275.38
2023-01-05T23:19:09.519Z,97278.88
2023-01-05T23:21:37.958Z,97273.50
2023-01-05T23:24:06.316Z,97262.94
2023-01-05T23:26:34.172Z,97260.44
2023-01-05T23:29:02.203Z,97256.84
2023-01-05T23:31:31.425Z,97248.94
2023-01-05T23:33:59.377Z,97247.25
2023-01-05T23:36:27.290Z,97241.03
2023-01-05T23:38:55.167Z,97250.72
2023-01-05T23:41:23.113Z,97242.72
2023-01-05T23:43:51.015Z,97239.25
2023-01-05T23:46:21.017Z,97246.22
2023-01-05T23:48:51.260Z,97235.75
2023-01-05T23:51:19.416Z,97227.78
2023-01-05T23:53:49.214Z,97237.28
2023-01-05T23:56:19.415Z,97226.06
2023-01-05T23:58:47.568Z,97229.75
